sensor_id;sensor_type;location;lat;lon;timestamp;temperature;humidity
29713;DHT22;16623;53.632;10.016;2023-03-01T00:01:17;1.30;99.90
29713;DHT22;16623;53.632;10.016;2023-03-01T00:03:43;1.30;99.90
29713;DHT22;16623;53.632;10.016;2023-03-01T00:06:09;1.30;99.90
29713;DHT22;16623;53.632;10.016;2023-03-01T00:08:35;1.30;99.90
29713;DHT22;16623;53.632;10.016;2023-03-01T00:13:30;1.30;99.90
29713;DHT22;16623;53.632;10.016;2023-03-01T00:15:56;1.30;99.90
29713;DHT22;16623;53.632;10.016;2023-03-01T00:18:22;1.30;99.90
29713;DHT22;16623;53.632;10.016;2023-03-01T00:20:54;1.30;99.90
29713;DHT22;16623;53.632;10.016;2023-03-01T00:23:21;1.30;99.90
29713;DHT22;16623;53.632;10.016;2023-03-01T00:25:47;1.20;99.90
29713;DHT22;16623;53.632;10.016;2023-03-01T00:28:13;1.10;99.90
29713;DHT22;16623;53.632;10.016;2023-03-01T00:30:38;1.00;99.90
29713;DHT22;16623;53.632;10.016;2023-03-01T00:33:04;1.00;99.90
29713;DHT22;16623;53.632;10.016;2023-03-01T00:35:29;1.00;99.90
29713;DHT22;16623;53.632;10.016;2023-03-01T00:37:57;0.90;99.90
29713;DHT22;16623;53.632;10.016;2023-03-01T00:40:27;0.90;99.90
29713;DHT22;16623;53.632;10.016;2023-03-01T00:42:53;0.90;99.90
29713;DHT22;16623;53.632;10.016;2023-03-01T00:45:18;1.10;99.90
29713;DHT22;16623;53.632;10.016;2023-03-01T00:47:44;1.00;99.90
29713;DHT22;16623;53.632;10.016;2023-03-01T00:50:11;1.00;99.90
29713;DHT22;16623;53.632;10.016;2023-03-01T00:52:36;1.00;99.90
29713;DHT22;16623;53.632;10.016;2023-03-01T00:55:03;0.90;99.90
29713;DHT22;16623;53.632;10.016;2023-03-01T00:57:29;0.90;99.90
29713;DHT22;16623;53.632;10.016;2023-03-01T00:59:54;0.80;99.90
29713;DHT22;16623;53.632;10.016;2023-03-01T01:02:20;0.90;99.90
29713;DHT22;16623;53.632;10.016;2023-03-01T01:04:46;0.90;99.90
29713;DHT22;16623;53.632;10.016;2023-03-01T01:07:12;0.90;99.90
29713;DHT22;16623;53.632;10.016;2023-03-01T01:09:38;0.70;99.90
29713;DHT22;16623;53.632;10.016;2023-03-01T01:12:04;0.70;99.90
29713;DHT22;16623;53.632;10.016;2023-03-01T01:14:29;0.70;99.90
29713;DHT22;16623;53.632;10.016;2023-03-01T01:16:55;0.70;99.90
29713;DHT22;16623;53.632;10.016;2023-03-01T01:19:21;0.70;99.90
29713;DHT22;16623;53.632;10.016;2023-03-01T01:21:46;0.80;99.90
29713;DHT22;16623;53.632;10.016;2023-03-01T01:24:14;0.80;99.90
29713;DHT22;16623;53.632;10.016;2023-03-01T01:26:40;0.90;99.90
29713;DHT22;16623;53.632;10.016;2023-03-01T01:29:06;0.90;99.90
29713;DHT22;16623;53.632;10.016;2023-03-01T01:31:34;0.90;99.90
29713;DHT22;16623;53.632;10.016;2023-03-01T01:34:00;1.00;99.90
29713;DHT22;16623;53.632;10.016;2023-03-01T01:36:26;0.90;99.90
29713;DHT22;16623;53.632;10.016;2023-03-01T01:38:52;0.90;99.90
29713;DHT22;16623;53.632;10.016;2023-03-01T01:41:20;0.90;99.90
29713;DHT22;16623;53.632;10.016;2023-03-01T01:46:58;0.90;99.90
29713;DHT22;16623;53.632;10.016;2023-03-01T01:49:45;0.90;99.90
29713;DHT22;16623;53.632;10.016;2023-03-01T01:52:20;0.80;99.90
29713;DHT22;16623;53.632;10.016;2023-03-01T01:55:00;0.80;99.90
29713;DHT22;16623;53.632;10.016;2023-03-01T01:57:31;0.80;99.90
29713;DHT22;16623;53.632;10.016;2023-03-01T02:00:03;0.60;99.90
29713;DHT22;16623;53.632;10.016;2023-03-01T02:02:30;0.90;99.90
29713;DHT22;16623;53.632;10.016;2023-03-01T02:05:06;0.70;99.90
29713;DHT22;16623;53.632;10.016;2023-03-01T02:07:38;0.60;99.90
29713;DHT22;16623;53.632;10.016;2023-03-01T02:10:04;0.70;99.90
29713;DHT22;16623;53.632;10.016;2023-03-01T02:12:30;0.60;99.90
29713;DHT22;16623;53.632;10.016;2023-03-01T02:14:56;0.60;99.90
29713;DHT22;16623;53.632;10.016;2023-03-01T02:17:22;0.60;99.90
29713;DHT22;16623;53.632;10.016;2023-03-01T02:27:42;0.50;99.90
29713;DHT22;16623;53.632;10.016;2023-03-01T02:30:10;0.50;99.90
29713;DHT22;16623;53.632;10.016;2023-03-01T02:32:39;0.50;99.90
29713;DHT22;16623;53.632;10.016;2023-03-01T02:35:09;0.60;99.90
29713;DHT22;16623;53.632;10.016;2023-03-01T02:37:36;0.50;99.90
29713;DHT22;16623;53.632;10.016;2023-03-01T02:40:05;0.50;99.90
29713;DHT22;16623;53.632;10.016;2023-03-01T02:42:53;0.50;99.90
29713;DHT22;16623;53.632;10.016;2023-03-01T02:45:20;0.50;99.90
29713;DHT22;16623;53.632;10.016;2023-03-01T02:47:45;0.50;99.90
29713;DHT22;16623;53.632;10.016;2023-03-01T02:53:02;0.50;99.90
29713;DHT22;16623;53.632;10.016;2023-03-01T02:55:31;0.50;99.90
29713;DHT22;16623;53.632;10.016;2023-03-01T02:58:02;0.50;99.90
29713;DHT22;16623;53.632;10.016;2023-03-01T03:00:34;0.50;99.90
29713;DHT22;16623;53.632;10.016;2023-03-01T03:03:01;0.60;99.90
29713;DHT22;16623;53.632;10.016;2023-03-01T03:05:29;0.60;99.90
29713;DHT22;16623;53.632;10.016;2023-03-01T03:07:55;0.60;99.90
29713;DHT22;16623;53.632;10.016;2023-03-01T03:10:25;2.60;99.90
29713;DHT22;16623;53.632;10.016;2023-03-01T03:12:56;0.60;99.90
29713;DHT22;16623;53.632;10.016;2023-03-01T03:15:23;0.60;99.90
29713;DHT22;16623;53.632;10.016;2023-03-01T03:17:50;0.70;99.90
29713;DHT22;16623;53.632;10.016;2023-03-01T03:20:17;0.70;99.90
29713;DHT22;16623;53.632;10.016;2023-03-01T03:22:51;0.70;99.90
29713;DHT22;16623;53.632;10.016;2023-03-01T03:25:35;0.70;99.90
29713;DHT22;16623;53.632;10.016;2023-03-01T03:28:04;0.70;99.90
29713;DHT22;16623;53.632;10.016;2023-03-01T03:30:36;0.70;99.90
29713;DHT22;16623;53.632;10.016;2023-03-01T03:33:04;0.60;99.90
29713;DHT22;16623;53.632;10.016;2023-03-01T03:35:32;0.70;99.90
29713;DHT22;16623;53.632;10.016;2023-03-01T03:38:00;0.80;99.90
29713;DHT22;16623;53.632;10.016;2023-03-01T03:40:36;0.90;99.90
29713;DHT22;16623;53.632;10.016;2023-03-01T03:43:16;0.90;99.90
29713;DHT22;16623;53.632;10.016;2023-03-01T03:45:44;0.90;99.90
29713;DHT22;16623;53.632;10.016;2023-03-01T03:48:10;0.90;99.90
29713;DHT22;16623;53.632;10.016;2023-03-01T03:50:37;0.90;99.90
29713;DHT22;16623;53.632;10.016;2023-03-01T03:53:06;0.90;99.90
29713;DHT22;16623;53.632;10.016;2023-03-01T03:55:32;1.00;99.90
29713;DHT22;16623;53.632;10.016;2023-03-01T03:58:00;1.00;99.90
29713;DHT22;16623;53.632;10.016;2023-03-01T04:00:32;1.00;99.90
29713;DHT22;16623;53.632;10.016;2023-03-01T04:02:58;1.00;99.90
29713;DHT22;16623;53.632;10.016;2023-03-01T04:05:24;1.00;99.90
29713;DHT22;16623;53.632;10.016;2023-03-01T04:07:50;1.00;99.90
29713;DHT22;16623;53.632;10.016;2023-03-01T04:10:26;1.00;99.90
29713;DHT22;16623;53.632;10.016;2023-03-01T04:12:52;1.10;99.90
29713;DHT22;16623;53.632;10.016;2023-03-01T04:15:17;1.10;99.90
29713;DHT22;16623;53.632;10.016;2023-03-01T04:17:45;1.10;99.90
29713;DHT22;16623;53.632;10.016;2023-03-01T04:20:16;1.10;99.90
29713;DHT22;16623;53.632;10.016;2023-03-01T04:22:43;1.20;99.90
29713;DHT22;16623;53.632;10.016;2023-03-01T04:25:12;1.20;99.90
29713;DHT22;16623;53.632;10.016;2023-03-01T04:27:40;1.20;99.90
29713;DHT22;16623;53.632;10.016;2023-03-01T04:30:07;1.10;99.90
29713;DHT22;16623;53.632;10.016;2023-03-01T04:32:33;1.20;99.90
29713;DHT22;16623;53.632;10.016;2023-03-01T04:34:59;1.20;99.90
29713;DHT22;16623;53.632;10.016;2023-03-01T04:37:25;1.20;99.90
29713;DHT22;16623;53.632;10.016;2023-03-01T04:39:50;1.30;99.90
29713;DHT22;16623;53.632;10.016;2023-03-01T04:42:16;1.30;99.90
29713;DHT22;16623;53.632;10.016;2023-03-01T04:44:45;1.30;99.90
29713;DHT22;16623;53.632;10.016;2023-03-01T04:47:11;1.40;99.90
29713;DHT22;16623;53.632;10.016;2023-03-01T04:49:37;1.40;99.90
29713;DHT22;16623;53.632;10.016;2023-03-01T04:52:03;1.50;99.90
29713;DHT22;16623;53.632;10.016;2023-03-01T04:54:31;1.50;99.90
29713;DHT22;16623;53.632;10.016;2023-03-01T04:56:57;1.50;99.90
29713;DHT22;16623;53.632;10.016;2023-03-01T04:59:23;1.60;99.90
29713;DHT22;16623;53.632;10.016;2023-03-01T05:01:49;1.70;99.90
29713;DHT22;16623;53.632;10.016;2023-03-01T05:04:15;1.70;99.90
29713;DHT22;16623;53.632;10.016;2023-03-01T05:06:41;1.50;99.90
29713;DHT22;16623;53.632;10.016;2023-03-01T05:09:06;1.30;99.90
29713;DHT22;16623;53.632;10.016;2023-03-01T05:11:32;1.40;99.90
29713;DHT22;16623;53.632;10.016;2023-03-01T05:14:01;1.50;99.90
29713;DHT22;16623;53.632;10.016;2023-03-01T05:16:27;1.60;99.90
29713;DHT22;16623;53.632;10.016;2023-03-01T05:18:52;1.70;99.90
29713;DHT22;16623;53.632;10.016;2023-03-01T05:21:20;1.70;99.90
29713;DHT22;16623;53.632;10.016;2023-03-01T05:23:46;1.80;99.90
29713;DHT22;16623;53.632;10.016;2023-03-01T05:26:12;1.70;99.90
29713;DHT22;16623;53.632;10.016;2023-03-01T05:28:38;1.80;99.90
29713;DHT22;16623;53.632;10.016;2023-03-01T05:31:05;1.80;99.90
29713;DHT22;16623;53.632;10.016;2023-03-01T05:33:39;1.70;99.90
29713;DHT22;16623;53.632;10.016;2023-03-01T05:36:08;1.70;99.90
29713;DHT22;16623;53.632;10.016;2023-03-01T05:38:35;1.70;99.90
29713;DHT22;16623;53.632;10.016;2023-03-01T05:43:30;1.90;99.90
29713;DHT22;16623;53.632;10.016;2023-03-01T05:45:57;1.90;99.90
29713;DHT22;16623;53.632;10.016;2023-03-01T05:48:23;1.80;99.90
29713;DHT22;16623;53.632;10.016;2023-03-01T05:50:49;1.90;99.90
29713;DHT22;16623;53.632;10.016;2023-03-01T05:53:19;1.90;99.90
29713;DHT22;16623;53.632;10.016;2023-03-01T05:55:46;2.00;99.90
29713;DHT22;16623;53.632;10.016;2023-03-01T05:58:18;2.00;99.90
29713;DHT22;16623;53.632;10.016;2023-03-01T06:00:46;2.00;99.90
29713;DHT22;16623;53.632;10.016;2023-03-01T06:03:13;2.10;99.90
29713;DHT22;16623;53.632;10.016;2023-03-01T06:05:40;2.00;99.90
29713;DHT22;16623;53.632;10.016;2023-03-01T06:08:06;1.90;99.90
29713;DHT22;16623;53.632;10.016;2023-03-01T06:10:32;1.80;99.90
29713;DHT22;16623;53.632;10.016;2023-03-01T06:12:57;1.80;99.90
29713;DHT22;16623;53.632;10.016;2023-03-01T06:15:24;1.70;99.90
29713;DHT22;16623;53.632;10.016;2023-03-01T06:17:50;1.60;99.90
29713;DHT22;16623;53.632;10.016;2023-03-01T06:20:22;1.60;99.90
29713;DHT22;16623;53.632;10.016;2023-03-01T06:22:48;1.60;99.90
29713;DHT22;16623;53.632;10.016;2023-03-01T06:25:17;1.60;99.90
29713;DHT22;16623;53.632;10.016;2023-03-01T06:27:43;1.60;99.90
29713;DHT22;16623;53.632;10.016;2023-03-01T06:30:11;1.60;99.90
29713;DHT22;16623;53.632;10.016;2023-03-01T06:32:37;1.70;99.90
29713;DHT22;16623;53.632;10.016;2023-03-01T06:35:04;1.80;99.90
29713;DHT22;16623;53.632;10.016;2023-03-01T06:37:30;1.80;99.90
29713;DHT22;16623;53.632;10.016;2023-03-01T06:39:55;1.70;99.90
29713;DHT22;16623;53.632;10.016;2023-03-01T06:42:21;1.80;99.90
29713;DHT22;16623;53.632;10.016;2023-03-01T06:44:46;1.90;99.90
29713;DHT22;16623;53.632;10.016;2023-03-01T06:47:12;1.90;99.90
29713;DHT22;16623;53.632;10.016;2023-03-01T06:49:38;2.00;99.90
29713;DHT22;16623;53.632;10.016;2023-03-01T06:52:03;2.00;99.90
29713;DHT22;16623;53.632;10.016;2023-03-01T06:54:29;2.10;99.90
29713;DHT22;16623;53.632;10.016;2023-03-01T06:56:54;2.30;99.90
29713;DHT22;16623;53.632;10.016;2023-03-01T06:59:20;2.30;99.90
29713;DHT22;16623;53.632;10.016;2023-03-01T07:01:46;2.40;99.90
29713;DHT22;16623;53.632;10.016;2023-03-01T07:04:12;2.50;99.90
29713;DHT22;16623;53.632;10.016;2023-03-01T07:09:04;2.50;99.90
29713;DHT22;16623;53.632;10.016;2023-03-01T07:11:30;2.60;99.90
29713;DHT22;16623;53.632;10.016;2023-03-01T07:13:56;2.60;99.90
29713;DHT22;16623;53.632;10.016;2023-03-01T07:16:21;2.70;99.90
29713;DHT22;16623;53.632;10.016;2023-03-01T07:18:47;2.80;99.90
29713;DHT22;16623;53.632;10.016;2023-03-01T07:21:14;2.90;99.90
29713;DHT22;16623;53.632;10.016;2023-03-01T07:23:40;2.80;99.90
29713;DHT22;16623;53.632;10.016;2023-03-01T07:26:05;2.90;99.90
29713;DHT22;16623;53.632;10.016;2023-03-01T07:28:31;2.90;99.90
29713;DHT22;16623;53.632;10.016;2023-03-01T07:31:02;3.10;99.90
29713;DHT22;16623;53.632;10.016;2023-03-01T07:33:28;3.10;99.90
29713;DHT22;16623;53.632;10.016;2023-03-01T07:36:02;3.20;99.90
29713;DHT22;16623;53.632;10.016;2023-03-01T07:38:29;3.20;99.90
29713;DHT22;16623;53.632;10.016;2023-03-01T07:40:59;3.10;99.90
29713;DHT22;16623;53.632;10.016;2023-03-01T07:43:24;3.00;99.90
29713;DHT22;16623;53.632;10.016;2023-03-01T07:45:50;3.10;99.90
29713;DHT22;16623;53.632;10.016;2023-03-01T07:48:16;3.20;99.90
29713;DHT22;16623;53.632;10.016;2023-03-01T07:50:41;3.40;99.90
29713;DHT22;16623;53.632;10.016;2023-03-01T07:53:07;3.10;99.90
29713;DHT22;16623;53.632;10.016;2023-03-01T07:55:33;3.20;99.90
29713;DHT22;16623;53.632;10.016;2023-03-01T07:57:58;3.30;99.90
29713;DHT22;16623;53.632;10.016;2023-03-01T08:00:24;3.40;99.90
29713;DHT22;16623;53.632;10.016;2023-03-01T08:02:50;3.40;99.90
29713;DHT22;16623;53.632;10.016;2023-03-01T08:05:15;3.50;99.90
29713;DHT22;16623;53.632;10.016;2023-03-01T08:07:41;3.50;99.90
29713;DHT22;16623;53.632;10.016;2023-03-01T08:10:07;3.70;99.90
29713;DHT22;16623;53.632;10.016;2023-03-01T08:12:32;3.60;99.90
29713;DHT22;16623;53.632;10.016;2023-03-01T08:14:58;3.70;99.90
29713;DHT22;16623;53.632;10.016;2023-03-01T08:17:24;3.80;99.90
29713;DHT22;16623;53.632;10.016;2023-03-01T08:19:49;3.80;99.90
29713;DHT22;16623;53.632;10.016;2023-03-01T08:22:15;3.90;99.90
29713;DHT22;16623;53.632;10.016;2023-03-01T08:24:40;3.90;99.90
29713;DHT22;16623;53.632;10.016;2023-03-01T08:27:06;3.90;99.90
29713;DHT22;16623;53.632;10.016;2023-03-01T08:29:32;4.00;99.90
29713;DHT22;16623;53.632;10.016;2023-03-01T08:31:58;4.10;99.90
29713;DHT22;16623;53.632;10.016;2023-03-01T08:34:24;4.10;99.90
29713;DHT22;16623;53.632;10.016;2023-03-01T08:36:49;3.90;99.90
29713;DHT22;16623;53.632;10.016;2023-03-01T08:39:17;4.10;99.90
29713;DHT22;16623;53.632;10.016;2023-03-01T08:41:44;3.80;99.90
29713;DHT22;16623;53.632;10.016;2023-03-01T08:44:12;3.90;99.90
29713;DHT22;16623;53.632;10.016;2023-03-01T08:46:40;3.90;99.90
29713;DHT22;16623;53.632;10.016;2023-03-01T08:49:07;4.00;99.90
29713;DHT22;16623;53.632;10.016;2023-03-01T08:51:33;4.20;99.90
29713;DHT22;16623;53.632;10.016;2023-03-01T08:54:07;4.10;99.90
29713;DHT22;16623;53.632;10.016;2023-03-01T08:56:33;4.20;99.90
29713;DHT22;16623;53.632;10.016;2023-03-01T08:58:59;4.10;99.90
29713;DHT22;16623;53.632;10.016;2023-03-01T09:01:24;4.00;99.90
29713;DHT22;16623;53.632;10.016;2023-03-01T09:03:50;4.00;99.90
29713;DHT22;16623;53.632;10.016;2023-03-01T09:06:15;3.70;99.90
29713;DHT22;16623;53.632;10.016;2023-03-01T09:08:43;3.80;99.90
29713;DHT22;16623;53.632;10.016;2023-03-01T09:11:11;4.00;99.90
29713;DHT22;16623;53.632;10.016;2023-03-01T09:13:37;4.00;99.90
29713;DHT22;16623;53.632;10.016;2023-03-01T09:16:04;4.30;99.90
29713;DHT22;16623;53.632;10.016;2023-03-01T09:18:31;4.70;99.90
29713;DHT22;16623;53.632;10.016;2023-03-01T09:21:05;5.00;99.90
29713;DHT22;16623;53.632;10.016;2023-03-01T09:23:39;5.30;99.90
29713;DHT22;16623;53.632;10.016;2023-03-01T09:26:10;5.50;99.90
29713;DHT22;16623;53.632;10.016;2023-03-01T09:31:02;5.50;99.90
29713;DHT22;16623;53.632;10.016;2023-03-01T09:33:29;5.40;99.90
29713;DHT22;16623;53.632;10.016;2023-03-01T09:36:03;5.20;99.90
29713;DHT22;16623;53.632;10.016;2023-03-01T09:38:30;5.10;99.90
29713;DHT22;16623;53.632;10.016;2023-03-01T09:40:55;5.00;99.90
29713;DHT22;16623;53.632;10.016;2023-03-01T09:45:55;5.10;99.90
29713;DHT22;16623;53.632;10.016;2023-03-01T09:48:25;5.30;99.90
29713;DHT22;16623;53.632;10.016;2023-03-01T09:50:52;5.40;99.90
29713;DHT22;16623;53.632;10.016;2023-03-01T09:53:21;5.60;99.90
29713;DHT22;16623;53.632;10.016;2023-03-01T09:58:34;5.70;99.90
29713;DHT22;16623;53.632;10.016;2023-03-01T10:01:41;5.70;99.90
29713;DHT22;16623;53.632;10.016;2023-03-01T10:04:30;5.90;99.90
29713;DHT22;16623;53.632;10.016;2023-03-01T10:07:27;5.90;99.90
29713;DHT22;16623;53.632;10.016;2023-03-01T10:09:54;6.30;99.90
29713;DHT22;16623;53.632;10.016;2023-03-01T10:12:24;6.70;99.90
29713;DHT22;16623;53.632;10.016;2023-03-01T10:14:58;6.60;99.90
29713;DHT22;16623;53.632;10.016;2023-03-01T10:17:35;7.00;99.90
29713;DHT22;16623;53.632;10.016;2023-03-01T10:20:21;7.00;99.90
29713;DHT22;16623;53.632;10.016;2023-03-01T10:22:47;6.50;99.90
29713;DHT22;16623;53.632;10.016;2023-03-01T10:31:15;6.10;99.90
29713;DHT22;16623;53.632;10.016;2023-03-01T10:33:42;6.30;99.90
29713;DHT22;16623;53.632;10.016;2023-03-01T10:36:09;6.30;99.90
29713;DHT22;16623;53.632;10.016;2023-03-01T10:38:53;6.40;99.90
29713;DHT22;16623;53.632;10.016;2023-03-01T10:41:20;6.40;99.90
29713;DHT22;16623;53.632;10.016;2023-03-01T10:43:49;6.30;99.90
29713;DHT22;16623;53.632;10.016;2023-03-01T10:46:31;6.60;99.90
29713;DHT22;16623;53.632;10.016;2023-03-01T10:49:36;7.00;99.90
29713;DHT22;16623;53.632;10.016;2023-03-01T10:52:18;7.50;99.90
29713;DHT22;16623;53.632;10.016;2023-03-01T10:54:56;7.80;99.90
29713;DHT22;16623;53.632;10.016;2023-03-01T10:57:46;7.70;99.90
29713;DHT22;16623;53.632;10.016;2023-03-01T11:00:17;7.60;99.90
29713;DHT22;16623;53.632;10.016;2023-03-01T11:02:50;7.70;99.90
29713;DHT22;16623;53.632;10.016;2023-03-01T11:05:23;7.50;99.90
29713;DHT22;16623;53.632;10.016;2023-03-01T11:07:57;7.50;99.90
29713;DHT22;16623;53.632;10.016;2023-03-01T11:10:25;8.70;99.90
29713;DHT22;16623;53.632;10.016;2023-03-01T11:13:23;7.30;99.90
29713;DHT22;16623;53.632;10.016;2023-03-01T11:16:03;7.20;99.90
29713;DHT22;16623;53.632;10.016;2023-03-01T11:18:30;7.30;99.90
29713;DHT22;16623;53.632;10.016;2023-03-01T11:20:57;7.30;99.90
29713;DHT22;16623;53.632;10.016;2023-03-01T11:23:24;7.40;99.90
29713;DHT22;16623;53.632;10.016;2023-03-01T11:26:17;7.50;99.90
29713;DHT22;16623;53.632;10.016;2023-03-01T11:28:55;7.50;99.90
29713;DHT22;16623;53.632;10.016;2023-03-01T11:31:26;7.50;99.90
29713;DHT22;16623;53.632;10.016;2023-03-01T11:39:28;7.50;99.90
29713;DHT22;16623;53.632;10.016;2023-03-01T11:42:11;7.60;99.90
29713;DHT22;16623;53.632;10.016;2023-03-01T11:44:39;7.60;99.90
29713;DHT22;16623;53.632;10.016;2023-03-01T11:49:58;7.80;99.90
29713;DHT22;16623;53.632;10.016;2023-03-01T11:52:36;7.80;99.90
29713;DHT22;16623;53.632;10.016;2023-03-01T12:03:17;8.00;99.90
29713;DHT22;16623;53.632;10.016;2023-03-01T12:08:41;8.10;99.90
29713;DHT22;16623;53.632;10.016;2023-03-01T12:25:53;8.00;99.90
29713;DHT22;16623;53.632;10.016;2023-03-01T12:34:11;8.20;99.90
29713;DHT22;16623;53.632;10.016;2023-03-01T12:50:53;8.40;99.90
29713;DHT22;16623;53.632;10.016;2023-03-01T12:55:51;8.50;99.90
29713;DHT22;16623;53.632;10.016;2023-03-01T13:01:06;8.60;99.90
29713;DHT22;16623;53.632;10.016;2023-03-01T13:06:58;8.60;99.90
29713;DHT22;16623;53.632;10.016;2023-03-01T13:09:59;8.60;99.90
29713;DHT22;16623;53.632;10.016;2023-03-01T13:17:49;8.50;99.90
29713;DHT22;16623;53.632;10.016;2023-03-01T13:20:23;8.50;99.90
29713;DHT22;16623;53.632;10.016;2023-03-01T13:23:01;8.50;99.90
29713;DHT22;16623;53.632;10.016;2023-03-01T13:25:27;8.40;99.90
29713;DHT22;16623;53.632;10.016;2023-03-01T13:30:57;8.40;99.90
29713;DHT22;16623;53.632;10.016;2023-03-01T13:33:39;8.50;99.90
29713;DHT22;16623;53.632;10.016;2023-03-01T13:36:06;8.40;99.90
29713;DHT22;16623;53.632;10.016;2023-03-01T13:39:00;8.40;99.90
29713;DHT22;16623;53.632;10.016;2023-03-01T13:41:56;8.40;99.90
29713;DHT22;16623;53.632;10.016;2023-03-01T13:52:40;8.40;99.90
29713;DHT22;16623;53.632;10.016;2023-03-01T13:55:23;8.50;99.90
29713;DHT22;16623;53.632;10.016;2023-03-01T13:57:56;8.50;99.90
29713;DHT22;16623;53.632;10.016;2023-03-01T14:03:15;8.50;99.90
29713;DHT22;16623;53.632;10.016;2023-03-01T14:06:05;8.40;99.90
29713;DHT22;16623;53.632;10.016;2023-03-01T14:08:30;8.50;99.90
29713;DHT22;16623;53.632;10.016;2023-03-01T14:11:25;8.40;99.90
29713;DHT22;16623;53.632;10.016;2023-03-01T14:19:28;8.60;99.90
29713;DHT22;16623;53.632;10.016;2023-03-01T14:22:26;8.60;99.90
29713;DHT22;16623;53.632;10.016;2023-03-01T14:24:58;8.60;99.90
29713;DHT22;16623;53.632;10.016;2023-03-01T14:27:36;8.50;99.90
29713;DHT22;16623;53.632;10.016;2023-03-01T14:30:16;8.40;99.90
29713;DHT22;16623;53.632;10.016;2023-03-01T14:32:58;8.40;99.90
29713;DHT22;16623;53.632;10.016;2023-03-01T14:35:29;8.20;99.90
29713;DHT22;16623;53.632;10.016;2023-03-01T14:37:55;8.10;99.90
29713;DHT22;16623;53.632;10.016;2023-03-01T14:40:31;8.00;99.90
29713;DHT22;16623;53.632;10.016;2023-03-01T14:42:59;8.00;99.90
29713;DHT22;16623;53.632;10.016;2023-03-01T14:45:29;7.80;99.90
29713;DHT22;16623;53.632;10.016;2023-03-01T14:48:00;7.80;99.90
29713;DHT22;16623;53.632;10.016;2023-03-01T14:50:35;7.80;99.90
29713;DHT22;16623;53.632;10.016;2023-03-01T14:53:03;7.90;99.90
29713;DHT22;16623;53.632;10.016;2023-03-01T14:55:33;8.20;99.90
29713;DHT22;16623;53.632;10.016;2023-03-01T14:58:06;7.80;99.90
29713;DHT22;16623;53.632;10.016;2023-03-01T15:00:35;7.80;99.90
29713;DHT22;16623;53.632;10.016;2023-03-01T15:05:50;7.80;99.90
29713;DHT22;16623;53.632;10.016;2023-03-01T15:08:19;7.80;99.90
29713;DHT22;16623;53.632;10.016;2023-03-01T15:11:23;7.70;99.90
29713;DHT22;16623;53.632;10.016;2023-03-01T15:13:48;7.60;99.90
29713;DHT22;16623;53.632;10.016;2023-03-01T15:16:21;7.60;99.90
29713;DHT22;16623;53.632;10.016;2023-03-01T15:21:25;7.60;99.90
29713;DHT22;16623;53.632;10.016;2023-03-01T15:24:02;7.70;99.90
29713;DHT22;16623;53.632;10.016;2023-03-01T15:26:31;7.60;99.90
29713;DHT22;16623;53.632;10.016;2023-03-01T15:28:59;7.60;99.90
29713;DHT22;16623;53.632;10.016;2023-03-01T15:31:31;7.60;99.90
29713;DHT22;16623;53.632;10.016;2023-03-01T15:34:25;7.60;99.90
29713;DHT22;16623;53.632;10.016;2023-03-01T15:36:53;7.60;99.90
29713;DHT22;16623;53.632;10.016;2023-03-01T15:45:11;7.60;99.90
29713;DHT22;16623;53.632;10.016;2023-03-01T15:47:39;7.50;99.90
29713;DHT22;16623;53.632;10.016;2023-03-01T15:50:19;7.40;99.90
29713;DHT22;16623;53.632;10.016;2023-03-01T15:52:46;7.40;99.90
29713;DHT22;16623;53.632;10.016;2023-03-01T15:55:27;7.30;99.90
29713;DHT22;16623;53.632;10.016;2023-03-01T15:58:01;7.30;99.90
29713;DHT22;16623;53.632;10.016;2023-03-01T16:00:28;7.30;99.90
29713;DHT22;16623;53.632;10.016;2023-03-01T16:05:30;7.10;99.90
29713;DHT22;16623;53.632;10.016;2023-03-01T16:07:56;7.10;99.90
29713;DHT22;16623;53.632;10.016;2023-03-01T16:12:51;7.00;99.90
29713;DHT22;16623;53.632;10.016;2023-03-01T16:17:43;6.90;99.90
29713;DHT22;16623;53.632;10.016;2023-03-01T16:20:10;6.80;99.90
29713;DHT22;16623;53.632;10.016;2023-03-01T16:22:35;6.70;99.90
29713;DHT22;16623;53.632;10.016;2023-03-01T16:25:01;6.70;99.90
29713;DHT22;16623;53.632;10.016;2023-03-01T16:27:27;6.60;99.90
29713;DHT22;16623;53.632;10.016;2023-03-01T16:29:53;6.60;99.90
29713;DHT22;16623;53.632;10.016;2023-03-01T16:32:18;6.50;99.90
29713;DHT22;16623;53.632;10.016;2023-03-01T16:34:44;6.50;99.90
29713;DHT22;16623;53.632;10.016;2023-03-01T16:37:09;6.40;99.90
29713;DHT22;16623;53.632;10.016;2023-03-01T16:39:38;6.40;99.90
29713;DHT22;16623;53.632;10.016;2023-03-01T16:42:04;6.30;99.90
29713;DHT22;16623;53.632;10.016;2023-03-01T16:44:30;6.20;99.90
29713;DHT22;16623;53.632;10.016;2023-03-01T16:46:56;6.20;99.90
29713;DHT22;16623;53.632;10.016;2023-03-01T16:49:22;6.10;99.90
29713;DHT22;16623;53.632;10.016;2023-03-01T16:51:47;6.10;99.90
29713;DHT22;16623;53.632;10.016;2023-03-01T16:54:13;6.00;99.90
29713;DHT22;16623;53.632;10.016;2023-03-01T16:56:39;6.00;99.90
29713;DHT22;16623;53.632;10.016;2023-03-01T16:59:06;5.90;99.90
29713;DHT22;16623;53.632;10.016;2023-03-01T17:01:32;5.80;99.90
29713;DHT22;16623;53.632;10.016;2023-03-01T17:04:04;5.80;99.90
29713;DHT22;16623;53.632;10.016;2023-03-01T17:06:30;5.70;99.90
29713;DHT22;16623;53.632;10.016;2023-03-01T17:08:57;5.60;99.90
29713;DHT22;16623;53.632;10.016;2023-03-01T17:11:24;5.60;99.90
29713;DHT22;16623;53.632;10.016;2023-03-01T17:13:50;5.50;99.90
29713;DHT22;16623;53.632;10.016;2023-03-01T17:16:18;5.50;99.90
29713;DHT22;16623;53.632;10.016;2023-03-01T17:18:44;5.40;99.90
29713;DHT22;16623;53.632;10.016;2023-03-01T17:21:10;5.40;99.90
29713;DHT22;16623;53.632;10.016;2023-03-01T17:23:38;5.30;99.90
29713;DHT22;16623;53.632;10.016;2023-03-01T17:26:04;5.20;99.90
29713;DHT22;16623;53.632;10.016;2023-03-01T17:28:31;5.20;99.90
29713;DHT22;16623;53.632;10.016;2023-03-01T17:30:59;4.90;99.90
29713;DHT22;16623;53.632;10.016;2023-03-01T17:33:24;4.90;99.90
29713;DHT22;16623;53.632;10.016;2023-03-01T17:35:50;4.80;99.90
29713;DHT22;16623;53.632;10.016;2023-03-01T17:38:16;4.70;99.90
29713;DHT22;16623;53.632;10.016;2023-03-01T17:40:43;4.60;99.90
29713;DHT22;16623;53.632;10.016;2023-03-01T17:43:13;4.50;99.90
29713;DHT22;16623;53.632;10.016;2023-03-01T17:45:39;4.30;99.90
29713;DHT22;16623;53.632;10.016;2023-03-01T17:48:06;4.20;99.90
29713;DHT22;16623;53.632;10.016;2023-03-01T17:50:32;4.10;99.90
29713;DHT22;16623;53.632;10.016;2023-03-01T17:52:58;3.80;99.90
29713;DHT22;16623;53.632;10.016;2023-03-01T17:55:24;3.70;99.90
29713;DHT22;16623;53.632;10.016;2023-03-01T17:57:50;3.50;99.90
29713;DHT22;16623;53.632;10.016;2023-03-01T18:00:16;3.40;99.90
29713;DHT22;16623;53.632;10.016;2023-03-01T18:02:43;3.20;99.90
29713;DHT22;16623;53.632;10.016;2023-03-01T18:05:09;3.10;99.90